Time;durP1;ratioP1;P1;durP2;ratioP2;P2;SDS_P1;SDS_P2;PMS_P1;PMS_P2;Temp;Humidity;BMP_temperature;BMP_pressure;BME280_temperature;BME280_humidity;BME280_pressure;Samples;Min_cycle;Max_cycle;Signal;HPM_P1;HPM_P2
2022/08/11 00:01:16;;;;;;;;;;;20.40;51.90;;;;;;5063092;28;19939;-70
2022/08/11 00:03:47;;;;;;;;;;;20.30;52.00;;;;;;5064421;28;20728;-70
2022/08/11 00:06:22;;;;;;;;;;;20.30;52.20;;;;;;5065926;28;19974;-72
2022/08/11 00:08:50;;;;;;;;;;;20.20;52.30;;;;;;5068841;28;20335;-71
2022/08/11 00:11:17;;;;;;;;;;;20.20;52.40;;;;;;5062750;28;19936;-72
2022/08/11 00:13:45;;;;;;;;;;;20.10;52.50;;;;;;5066708;28;20160;-69
2022/08/11 00:16:13;;;;;;;;;;;20.10;52.70;;;;;;5061540;28;19939;-71
2022/08/11 00:18:41;;;;;;;;;;;20.10;52.80;;;;;;5066819;28;20392;-70
2022/08/11 00:21:09;;;;;;;;;;;20.10;53.00;;;;;;5066757;28;19928;-72
2022/08/11 00:23:41;;;;;;;;;;;20.00;53.20;;;;;;5065923;28;19935;-70
2022/08/11 00:26:08;;;;;;;;;;;20.00;53.30;;;;;;5065717;28;19983;-71
2022/08/11 00:28:35;;;;;;;;;;;20.00;53.40;;;;;;5066514;28;19925;-72
2022/08/11 00:31:03;;;;;;;;;;;20.00;53.40;;;;;;5066300;28;20419;-71
2022/08/11 00:33:33;;;;;;;;;;;19.90;53.60;;;;;;5063698;28;20055;-69
2022/08/11 00:36:00;;;;;;;;;;;19.90;53.70;;;;;;5065312;28;20027;-70
2022/08/11 00:38:33;;;;;;;;;;;19.90;54.00;;;;;;5067333;28;20040;-71
2022/08/11 00:41:04;;;;;;;;;;;19.90;54.00;;;;;;5064043;28;19932;-71
2022/08/11 00:43:40;;;;;;;;;;;19.80;54.10;;;;;;5068036;28;19933;-71
2022/08/11 00:46:16;;;;;;;;;;;19.80;54.30;;;;;;5065881;28;19925;-70
2022/08/11 00:48:48;;;;;;;;;;;19.70;54.40;;;;;;5069642;28;19925;-71
2022/08/11 00:51:20;;;;;;;;;;;19.70;54.60;;;;;;5065058;28;19925;-69
2022/08/11 00:53:54;;;;;;;;;;;19.70;54.70;;;;;;5070546;28;19935;-72
2022/08/11 00:56:36;;;;;;;;;;;19.60;54.80;;;;;;5068137;28;20046;-71
2022/08/11 00:59:21;;;;;;;;;;;19.60;54.80;;;;;;5067656;28;19933;-70
2022/08/11 01:01:56;;;;;;;;;;;19.60;55.00;;;;;;5051753;28;20021;-72
2022/08/11 01:04:38;;;;;;;;;;;19.60;54.90;;;;;;5067736;28;19933;-71
2022/08/11 01:07:32;;;;;;;;;;;19.50;55.00;;;;;;5065577;28;19928;-70
2022/08/11 01:10:07;;;;;;;;;;;19.50;54.90;;;;;;5067251;28;19933;-69
2022/08/11 01:12:40;;;;;;;;;;;19.40;55.00;;;;;;5064732;28;19933;-71
2022/08/11 01:15:22;;;;;;;;;;;19.40;55.10;;;;;;5066732;28;19961;-69
2022/08/11 01:18:11;;;;;;;;;;;19.40;55.20;;;;;;5066333;28;20382;-70
2022/08/11 01:20:53;;;;;;;;;;;19.30;55.20;;;;;;5066213;28;20015;-71
2022/08/11 01:23:47;;;;;;;;;;;19.30;55.40;;;;;;5065830;28;19967;-71
2022/08/11 01:29:28;;;;;;;;;;;19.20;55.60;;;;;;5021720;28;19925;-71
2022/08/11 01:32:16;;;;;;;;;;;19.20;55.70;;;;;;5023411;28;20035;-71
2022/08/11 01:34:58;;;;;;;;;;;19.10;55.70;;;;;;5024283;28;20424;-69
2022/08/11 01:37:39;;;;;;;;;;;19.10;56.00;;;;;;5018438;28;20016;-70
2022/08/11 01:40:19;;;;;;;;;;;19.10;56.10;;;;;;4989279;28;20071;-71
2022/08/11 01:45:50;;;;;;;;;;;19.10;56.20;;;;;;5022045;28;19932;-71
2022/08/11 01:48:21;;;;;;;;;;;19.00;56.50;;;;;;5023643;28;19952;-70
2022/08/11 01:50:58;;;;;;;;;;;19.00;56.60;;;;;;5025897;28;19929;-71
2022/08/11 01:53:30;;;;;;;;;;;19.00;56.80;;;;;;5026540;28;19932;-70
2022/08/11 01:56:05;;;;;;;;;;;18.90;56.90;;;;;;5025360;28;20011;-71
2022/08/11 01:58:36;;;;;;;;;;;18.90;57.10;;;;;;5026677;28;21122;-69
2022/08/11 02:01:09;;;;;;;;;;;18.80;57.30;;;;;;5019019;28;19925;-70
2022/08/11 02:03:43;;;;;;;;;;;18.80;57.30;;;;;;5018243;28;20379;-70
2022/08/11 02:08:58;;;;;;;;;;;18.70;57.30;;;;;;5021120;28;19936;-70
2022/08/11 02:11:30;;;;;;;;;;;18.80;57.20;;;;;;5026938;28;19929;-70
2022/08/11 02:14:00;;;;;;;;;;;18.70;57.20;;;;;;5024405;28;19939;-71
2022/08/11 02:16:34;;;;;;;;;;;18.70;57.10;;;;;;5030955;28;19932;-72
2022/08/11 02:24:43;;;;;;;;;;;18.60;57.30;;;;;;5025914;28;19968;-70
2022/08/11 02:27:18;;;;;;;;;;;18.60;57.40;;;;;;5026030;28;19925;-71
2022/08/11 02:29:49;;;;;;;;;;;18.50;57.70;;;;;;5020719;28;19956;-71
2022/08/11 02:35:12;;;;;;;;;;;18.40;57.80;;;;;;5030173;28;19929;-71
2022/08/11 02:37:45;;;;;;;;;;;18.40;57.90;;;;;;5026195;28;20406;-71
2022/08/11 02:40:19;;;;;;;;;;;18.40;58.10;;;;;;5027892;28;19925;-70
2022/08/11 02:42:55;;;;;;;;;;;18.30;58.30;;;;;;5027216;28;19933;-72
2022/08/11 02:45:34;;;;;;;;;;;18.30;58.60;;;;;;5034991;28;19932;-70
2022/08/11 02:50:52;;;;;;;;;;;18.20;58.60;;;;;;5023152;28;20578;-72
2022/08/11 02:53:23;;;;;;;;;;;18.20;58.60;;;;;;5024014;28;19944;-70
2022/08/11 02:55:54;;;;;;;;;;;18.20;58.50;;;;;;5023372;28;19991;-71
2022/08/11 02:58:29;;;;;;;;;;;18.10;58.40;;;;;;5029173;28;19932;-71
2022/08/11 03:01:01;;;;;;;;;;;18.10;58.50;;;;;;5023769;28;19929;-71
2022/08/11 03:03:32;;;;;;;;;;;18.10;58.60;;;;;;5027622;28;19933;-70
2022/08/11 03:06:04;;;;;;;;;;;18.10;58.70;;;;;;5022109;28;19933;-72
2022/08/11 03:08:40;;;;;;;;;;;18.10;58.80;;;;;;5026390;28;19925;-71
2022/08/11 03:16:57;;;;;;;;;;;18.00;59.10;;;;;;5020913;28;19931;-72
2022/08/11 03:19:28;;;;;;;;;;;17.90;59.10;;;;;;5029241;28;19951;-71
2022/08/11 03:22:08;;;;;;;;;;;17.90;59.30;;;;;;5024867;28;19929;-72
2022/08/11 03:24:44;;;;;;;;;;;17.90;59.40;;;;;;5016027;28;19925;-70
2022/08/11 03:27:19;;;;;;;;;;;17.90;59.70;;;;;;5017749;28;19937;-71
2022/08/11 03:29:58;;;;;;;;;;;17.80;59.80;;;;;;5026794;28;19935;-71
2022/08/11 03:32:27;;;;;;;;;;;17.90;59.80;;;;;;5028906;28;19925;-71
2022/08/11 03:34:53;;;;;;;;;;;17.80;60.00;;;;;;5018088;28;19925;-71
2022/08/11 03:41:41;;;;;;;;;;;17.70;60.10;;;;;;5013882;28;20386;-71
2022/08/11 03:43:05;;;;;;;;;;;17.70;60.00;;;;;;5018417;28;19933;-70
2022/08/11 03:45:36;;;;;;;;;;;17.60;60.20;;;;;;5026237;28;19925;-70
2022/08/11 03:48:08;;;;;;;;;;;17.60;60.20;;;;;;5027999;28;20298;-71
2022/08/11 03:50:47;;;;;;;;;;;17.60;60.30;;;;;;5022050;28;19929;-69
2022/08/11 03:53:17;;;;;;;;;;;17.60;60.30;;;;;;5024971;28;19925;-71
2022/08/11 03:56:00;;;;;;;;;;;17.50;60.60;;;;;;5029934;28;19933;-71
2022/08/11 03:58:42;;;;;;;;;;;17.50;60.30;;;;;;5028775;28;19982;-69
2022/08/11 04:01:31;;;;;;;;;;;17.50;60.30;;;;;;5022629;28;20653;-71
2022/08/11 04:04:07;;;;;;;;;;;17.50;60.00;;;;;;5025052;28;19957;-70
2022/08/11 04:06:47;;;;;;;;;;;17.60;59.90;;;;;;5032186;28;19953;-70
2022/08/11 04:09:35;;;;;;;;;;;17.50;60.00;;;;;;5029497;28;19971;-69
2022/08/11 04:12:20;;;;;;;;;;;17.50;60.10;;;;;;5030354;28;19971;-69
2022/08/11 04:18:05;;;;;;;;;;;17.50;60.20;;;;;;5025269;28;19936;-71
2022/08/11 04:20:43;;;;;;;;;;;17.40;60.20;;;;;;5023595;28;20297;-71
2022/08/11 04:23:25;;;;;;;;;;;17.40;60.40;;;;;;5019068;28;19932;-70
2022/08/11 04:26:10;;;;;;;;;;;17.30;60.50;;;;;;5016257;28;19925;-69
2022/08/11 04:28:48;;;;;;;;;;;17.30;60.60;;;;;;5029487;28;19940;-70
2022/08/11 04:31:32;;;;;;;;;;;17.30;60.80;;;;;;5018995;28;20371;-69
2022/08/11 04:34:06;;;;;;;;;;;17.20;61.10;;;;;;5022349;28;19948;-70
2022/08/11 04:39:49;;;;;;;;;;;17.20;61.20;;;;;;5030145;28;19925;-71
2022/08/11 04:45:36;;;;;;;;;;;17.30;61.10;;;;;;5012798;28;19926;-71
2022/08/11 05:03:07;;;;;;;;;;;17.20;61.50;;;;;;5027806;28;19937;-70
2022/08/11 05:05:52;;;;;;;;;;;17.20;61.80;;;;;;5030970;28;20289;-70
2022/08/11 05:08:45;;;;;;;;;;;17.20;61.90;;;;;;5023221;28;19926;-72
2022/08/11 05:11:25;;;;;;;;;;;17.20;62.00;;;;;;5017367;28;19925;-71
2022/08/11 05:36:19;;;;;;;;;;;17.50;61.60;;;;;;5019386;28;19957;-71
2022/08/11 05:58:07;;;;;;;;;;;17.70;61.60;;;;;;5029483;28;19933;-70
2022/08/11 06:00:43;;;;;;;;;;;17.80;61.50;;;;;;5014058;28;19925;-70
2022/08/11 06:03:11;;;;;;;;;;;17.80;61.60;;;;;;5026998;28;19967;-71
2022/08/11 06:05:38;;;;;;;;;;;17.80;61.70;;;;;;5026859;28;19929;-69
2022/08/11 06:08:06;;;;;;;;;;;17.90;61.80;;;;;;5028437;28;20359;-70
2022/08/11 06:10:37;;;;;;;;;;;17.90;61.80;;;;;;5021048;28;19943;-71
2022/08/11 06:13:05;;;;;;;;;;;18.00;61.60;;;;;;5025942;28;19929;-70
2022/08/11 06:15:33;;;;;;;;;;;18.00;61.40;;;;;;5026641;28;19925;-70
2022/08/11 06:18:02;;;;;;;;;;;18.10;61.40;;;;;;5028550;28;19963;-71
2022/08/11 06:20:35;;;;;;;;;;;18.10;61.00;;;;;;5027938;28;19925;-71
2022/08/11 06:23:03;;;;;;;;;;;18.20;60.90;;;;;;5028913;28;20329;-71
2022/08/11 06:25:30;;;;;;;;;;;18.20;60.80;;;;;;5014354;28;20064;-72
2022/08/11 06:27:58;;;;;;;;;;;18.30;60.80;;;;;;5027055;28;19967;-71
2022/08/11 06:30:33;;;;;;;;;;;18.30;60.40;;;;;;5018802;28;19948;-71
2022/08/11 06:33:03;;;;;;;;;;;18.50;60.20;;;;;;5021476;28;19933;-70
2022/08/11 06:35:44;;;;;;;;;;;18.60;59.70;;;;;;5024161;28;19929;-72
2022/08/11 06:38:14;;;;;;;;;;;18.70;59.80;;;;;;5016864;28;19933;-70
2022/08/11 06:41:29;;;;;;;;;;;18.70;59.80;;;;;;5024977;28;19925;-71
2022/08/11 06:43:42;;;;;;;;;;;18.80;59.90;;;;;;5026858;28;20394;-71
2022/08/11 06:46:10;;;;;;;;;;;19.00;59.50;;;;;;5034364;28;19937;-71
2022/08/11 06:48:39;;;;;;;;;;;19.10;59.40;;;;;;5022965;28;19933;-68
2022/08/11 06:51:11;;;;;;;;;;;19.20;59.20;;;;;;5024127;28;19932;-71
2022/08/11 06:53:39;;;;;;;;;;;19.40;58.80;;;;;;5019733;28;20019;-70
2022/08/11 07:01:45;;;;;;;;;;;19.90;57.60;;;;;;5021828;28;19936;-71
2022/08/11 07:04:15;;;;;;;;;;;20.10;57.30;;;;;;5017810;28;19952;-70
2022/08/11 07:15:40;;;;;;;;;;;20.20;57.00;;;;;;5018249;28;19933;-70
2022/08/11 07:15:44;;;;;;;;;;;20.70;56.10;;;;;;5030111;28;19968;-71
2022/08/11 07:29:25;;;;;;;;;;;21.70;53.90;;;;;;5014932;28;19941;-72
2022/08/11 07:31:52;;;;;;;;;;;21.90;53.30;;;;;;5028010;28;19952;-71
2022/08/11 07:34:21;;;;;;;;;;;22.10;53.40;;;;;;5024029;28;20040;-70
2022/08/11 07:36:52;;;;;;;;;;;22.20;52.60;;;;;;5023982;28;19951;-70
2022/08/11 07:39:20;;;;;;;;;;;22.30;52.60;;;;;;5028097;28;20176;-70
2022/08/11 07:41:48;;;;;;;;;;;22.50;51.80;;;;;;5017303;28;20961;-70
2022/08/11 07:44:15;;;;;;;;;;;22.70;51.20;;;;;;5035637;28;20382;-70
2022/08/11 07:52:28;;;;;;;;;;;23.10;49.60;;;;;;5021454;28;19972;-71
2022/08/11 07:54:55;;;;;;;;;;;23.30;49.50;;;;;;5030345;28;19971;-69
2022/08/11 08:19:23;;;;;;;;;;;24.60;46.50;;;;;;5024709;28;20015;-67
2022/08/11 08:21:50;;;;;;;;;;;24.80;46.20;;;;;;5028153;28;20346;-69
2022/08/11 08:24:19;;;;;;;;;;;24.90;46.00;;;;;;5024353;28;19930;-68
2022/08/11 08:27:00;;;;;;;;;;;25.00;45.80;;;;;;5015852;28;19933;-67
2022/08/11 08:32:12;;;;;;;;;;;25.30;45.30;;;;;;5030732;28;20383;-67
2022/08/11 08:34:39;;;;;;;;;;;25.40;44.60;;;;;;5025080;28;20317;-67
2022/08/11 08:37:07;;;;;;;;;;;25.60;44.50;;;;;;5019490;28;19933;-66
2022/08/11 08:39:36;;;;;;;;;;;25.70;44.10;;;;;;5026106;28;19925;-68
2022/08/11 08:42:06;;;;;;;;;;;25.80;44.00;;;;;;5020766;28;19928;-67
2022/08/11 08:44:34;;;;;;;;;;;25.90;43.50;;;;;;5019858;28;20008;-66
2022/08/11 08:47:03;;;;;;;;;;;26.00;43.40;;;;;;5022729;28;19933;-67
2022/08/11 08:49:32;;;;;;;;;;;26.00;43.50;;;;;;5022614;28;19933;-66
2022/08/11 08:52:01;;;;;;;;;;;26.20;42.60;;;;;;5024887;28;20023;-67
2022/08/11 08:54:30;;;;;;;;;;;26.30;42.40;;;;;;5028377;28;19947;-68
2022/08/11 08:56:58;;;;;;;;;;;26.40;42.30;;;;;;5025002;28;20012;-68
2022/08/11 08:59:26;;;;;;;;;;;26.50;41.80;;;;;;5018528;28;19940;-66
2022/08/11 09:01:57;;;;;;;;;;;26.70;41.60;;;;;;5022100;28;19925;-67
2022/08/11 09:04:24;;;;;;;;;;;26.80;40.70;;;;;;5030180;28;19933;-68
2022/08/11 09:06:51;;;;;;;;;;;26.90;41.10;;;;;;5025057;28;19933;-68
2022/08/11 09:09:18;;;;;;;;;;;27.00;41.00;;;;;;5034763;28;19925;-66
2022/08/11 09:11:52;;;;;;;;;;;27.10;40.30;;;;;;5030366;28;19929;-67
2022/08/11 09:14:21;;;;;;;;;;;27.30;40.30;;;;;;5028254;28;19929;-66
2022/08/11 09:16:49;;;;;;;;;;;27.30;40.30;;;;;;5027478;28;19925;-67
2022/08/11 09:19:18;;;;;;;;;;;27.50;40.10;;;;;;5016170;28;20401;-67
2022/08/11 09:26:57;;;;;;;;;;;27.50;40.10;;;;;;5024656;28;19933;-66
2022/08/11 09:27:17;;;;;;;;;;;27.50;39.10;;;;;;5022589;28;19930;-66
2022/08/11 09:29:45;;;;;;;;;;;27.60;39.00;;;;;;5005677;28;19925;-67
2022/08/11 09:32:13;;;;;;;;;;;27.70;38.70;;;;;;5003416;28;19926;-68
2022/08/11 09:34:40;;;;;;;;;;;27.90;38.40;;;;;;4999183;28;19949;-67
2022/08/11 09:45:25;;;;;;;;;;;28.50;36.40;;;;;;4998692;28;19934;-67
2022/08/11 09:47:52;;;;;;;;;;;28.50;35.80;;;;;;5004520;28;20269;-67
2022/08/11 09:50:19;;;;;;;;;;;28.60;35.40;;;;;;5000311;28;20102;-67
2022/08/11 09:52:47;;;;;;;;;;;28.70;34.90;;;;;;5008490;28;19929;-67
2022/08/11 09:55:15;;;;;;;;;;;28.60;35.50;;;;;;5012799;28;19925;-65
2022/08/11 10:00:36;;;;;;;;;;;28.70;34.80;;;;;;4987658;28;19926;-67
2022/08/11 10:03:05;;;;;;;;;;;28.90;34.70;;;;;;4994782;28;20290;-66
2022/08/11 10:08:18;;;;;;;;;;;29.00;34.40;;;;;;5002250;28;19944;-66
2022/08/11 10:10:47;;;;;;;;;;;29.10;34.60;;;;;;5010828;28;19980;-67
2022/08/11 10:13:16;;;;;;;;;;;29.10;34.30;;;;;;5010029;28;19930;-65
2022/08/11 10:15:45;;;;;;;;;;;29.20;34.50;;;;;;5000979;28;19936;-66
2022/08/11 10:21:00;;;;;;;;;;;29.10;34.10;;;;;;4996944;28;20306;-67
2022/08/11 10:28:56;;;;;;;;;;;29.40;33.40;;;;;;5024319;28;20413;-66
2022/08/11 10:34:09;;;;;;;;;;;29.50;33.30;;;;;;5018382;28;19982;-66
2022/08/11 10:36:41;;;;;;;;;;;29.60;32.80;;;;;;5019677;28;19932;-65
2022/08/11 10:39:09;;;;;;;;;;;29.60;32.90;;;;;;5026110;28;20285;-66
2022/08/11 10:44:21;;;;;;;;;;;29.70;32.50;;;;;;5025165;28;20444;-66
2022/08/11 10:49:35;;;;;;;;;;;29.90;32.50;;;;;;5022738;28;19925;-66
2022/08/11 11:00:16;;;;;;;;;;;30.10;31.50;;;;;;5022641;28;19953;-66
2022/08/11 11:02:45;;;;;;;;;;;30.10;31.10;;;;;;5017447;28;20014;-67
2022/08/11 11:05:15;;;;;;;;;;;30.10;31.60;;;;;;5026303;28;19925;-66
2022/08/11 11:07:48;;;;;;;;;;;30.10;31.90;;;;;;5027056;28;21232;-66
2022/08/11 11:10:15;;;;;;;;;;;30.10;31.50;;;;;;5021458;28;19974;-66
2022/08/11 11:18:19;;;;;;;;;;;30.40;30.50;;;;;;5021749;28;19932;-65
2022/08/11 11:20:48;;;;;;;;;;;30.50;30.60;;;;;;5022306;28;19983;-66
2022/08/11 11:23:17;;;;;;;;;;;30.50;30.40;;;;;;5031962;28;20327;-65
2022/08/11 11:26:06;;;;;;;;;;;30.50;30.80;;;;;;5027020;28;20264;-67
2022/08/11 11:28:44;;;;;;;;;;;30.60;30.50;;;;;;5027077;28;20314;-66
2022/08/11 11:31:13;;;;;;;;;;;30.60;30.20;;;;;;5021890;28;19971;-65
2022/08/11 11:33:58;;;;;;;;;;;30.60;30.50;;;;;;5024684;28;19935;-65
2022/08/11 11:36:28;;;;;;;;;;;30.80;29.50;;;;;;5021465;28;19948;-66
2022/08/11 11:38:56;;;;;;;;;;;30.80;29.50;;;;;;5025793;28;19925;-65
2022/08/11 11:41:26;;;;;;;;;;;30.80;29.80;;;;;;5024343;28;19933;-65
2022/08/11 11:43:54;;;;;;;;;;;30.80;30.00;;;;;;5023324;28;19929;-65
2022/08/11 11:46:21;;;;;;;;;;;30.80;30.00;;;;;;5027454;28;19925;-65
2022/08/11 11:48:49;;;;;;;;;;;30.70;30.20;;;;;;5024645;28;19926;-65
2022/08/11 11:51:17;;;;;;;;;;;30.60;30.50;;;;;;5017815;28;19929;-65
2022/08/11 11:53:45;;;;;;;;;;;30.70;30.50;;;;;;5015063;28;20031;-67
2022/08/11 11:56:12;;;;;;;;;;;30.70;29.80;;;;;;5028946;28;20288;-66
2022/08/11 12:01:27;;;;;;;;;;;30.90;29.60;;;;;;5006292;28;20396;-66
2022/08/11 12:03:54;;;;;;;;;;;30.90;29.90;;;;;;5025716;28;20003;-65
2022/08/11 12:06:24;;;;;;;;;;;30.90;29.20;;;;;;5027699;28;20288;-65
2022/08/11 12:08:53;;;;;;;;;;;30.90;29.00;;;;;;5019946;28;20745;-66
2022/08/11 12:14:06;;;;;;;;;;;30.80;28.80;;;;;;5024988;28;19932;-66
2022/08/11 12:16:35;;;;;;;;;;;30.90;28.80;;;;;;5024251;28;19948;-66
2022/08/11 12:19:02;;;;;;;;;;;30.90;29.20;;;;;;5027842;28;20424;-65
2022/08/11 12:21:31;;;;;;;;;;;31.00;29.20;;;;;;5028142;28;20436;-65
2022/08/11 12:29:29;;;;;;;;;;;30.80;29.70;;;;;;5021206;28;19925;-64
2022/08/11 12:31:57;;;;;;;;;;;30.80;29.60;;;;;;5020995;28;19933;-66
2022/08/11 12:34:26;;;;;;;;;;;30.90;29.40;;;;;;5025198;28;20036;-64
2022/08/11 12:36:57;;;;;;;;;;;31.00;29.20;;;;;;5026229;28;19925;-66
2022/08/11 12:45:26;;;;;;;;;;;31.00;29.30;;;;;;5026094;28;19934;-65
2022/08/11 12:53:21;;;;;;;;;;;31.20;28.80;;;;;;5027711;28;19929;-67
2022/08/11 12:58:33;;;;;;;;;;;31.10;28.90;;;;;;5026813;28;20011;-65
2022/08/11 13:06:29;;;;;;;;;;;31.00;29.10;;;;;;5029682;28;19932;-65
2022/08/11 13:08:58;;;;;;;;;;;31.00;29.00;;;;;;5029792;28;19947;-65
2022/08/11 13:14:09;;;;;;;;;;;31.10;29.20;;;;;;5037670;28;19931;-64
2022/08/11 13:17:19;;;;;;;;;;;31.10;28.60;;;;;;5014238;28;19932;-64
2022/08/11 13:19:24;;;;;;;;;;;31.10;29.20;;;;;;5026620;28;19932;-64
2022/08/11 13:21:52;;;;;;;;;;;31.00;30.20;;;;;;5026527;28;20019;-65
2022/08/11 13:24:21;;;;;;;;;;;31.00;29.70;;;;;;5028589;28;19932;-65
2022/08/11 13:26:49;;;;;;;;;;;30.80;29.70;;;;;;5022136;28;20123;-67
2022/08/11 13:29:18;;;;;;;;;;;30.80;29.60;;;;;;5025028;28;19925;-64
2022/08/11 13:31:45;;;;;;;;;;;30.70;30.40;;;;;;5027085;28;19933;-64
2022/08/11 13:34:12;;;;;;;;;;;30.70;30.10;;;;;;5015499;28;19932;-65
2022/08/11 13:36:40;;;;;;;;;;;30.60;30.30;;;;;;5028148;28;19925;-65
2022/08/11 13:39:08;;;;;;;;;;;30.60;29.90;;;;;;5019127;28;19932;-66
2022/08/11 13:41:40;;;;;;;;;;;30.50;30.40;;;;;;5025038;28;19928;-63
2022/08/11 13:44:09;;;;;;;;;;;30.60;29.30;;;;;;5018294;28;20543;-66
2022/08/11 13:46:36;;;;;;;;;;;30.50;28.80;;;;;;5026908;28;19971;-64
2022/08/11 13:49:03;;;;;;;;;;;30.50;29.90;;;;;;5017543;28;19932;-65
2022/08/11 13:51:31;;;;;;;;;;;30.50;30.30;;;;;;5024793;28;20409;-64
2022/08/11 13:53:59;;;;;;;;;;;30.50;29.10;;;;;;5028447;28;19932;-65
2022/08/11 13:56:26;;;;;;;;;;;30.60;29.30;;;;;;5030585;28;19932;-65
2022/08/11 13:58:55;;;;;;;;;;;30.50;29.40;;;;;;5017519;28;19925;-65
2022/08/11 14:01:24;;;;;;;;;;;30.50;30.10;;;;;;5013241;28;19947;-66
2022/08/11 14:03:51;;;;;;;;;;;30.40;29.50;;;;;;5027533;28;20031;-64
2022/08/11 14:06:18;;;;;;;;;;;30.40;29.10;;;;;;5027333;28;20384;-65
2022/08/11 14:08:45;;;;;;;;;;;30.40;31.00;;;;;;5028982;28;19925;-66
2022/08/11 14:13:59;;;;;;;;;;;30.40;29.70;;;;;;5031179;28;20358;-65
2022/08/11 14:16:28;;;;;;;;;;;30.40;29.30;;;;;;5031252;28;19940;-64
2022/08/11 14:18:57;;;;;;;;;;;30.30;29.40;;;;;;5031764;28;19925;-65
2022/08/11 14:24:11;;;;;;;;;;;30.40;29.10;;;;;;5032987;28;19952;-63
2022/08/11 14:26:38;;;;;;;;;;;30.40;29.20;;;;;;5028597;28;19925;-65
2022/08/11 14:29:08;;;;;;;;;;;30.40;29.70;;;;;;5031425;28;20370;-64
2022/08/11 14:31:36;;;;;;;;;;;30.40;28.80;;;;;;5031712;28;19925;-64
2022/08/11 14:34:04;;;;;;;;;;;30.40;28.80;;;;;;5028023;28;19959;-63
2022/08/11 14:36:32;;;;;;;;;;;30.40;29.90;;;;;;5023223;28;20028;-65
2022/08/11 14:39:01;;;;;;;;;;;30.40;29.40;;;;;;5030092;28;19975;-64
2022/08/11 14:47:07;;;;;;;;;;;30.30;28.80;;;;;;5031211;28;19929;-66
2022/08/11 14:49:35;;;;;;;;;;;30.20;28.70;;;;;;5024786;28;19976;-66
2022/08/11 14:52:02;;;;;;;;;;;30.20;29.80;;;;;;5023388;28;19935;-64
2022/08/11 14:57:16;;;;;;;;;;;30.10;28.60;;;;;;5028073;28;19925;-65
2022/08/11 14:59:46;;;;;;;;;;;30.20;28.90;;;;;;5031915;28;19925;-63
2022/08/11 15:04:58;;;;;;;;;;;30.10;28.30;;;;;;5023385;28;19975;-63
2022/08/11 15:07:28;;;;;;;;;;;30.00;28.70;;;;;;5024583;28;19925;-63
2022/08/11 15:09:56;;;;;;;;;;;30.00;30.10;;;;;;5027373;28;19933;-64
2022/08/11 15:12:23;;;;;;;;;;;29.90;30.70;;;;;;5025543;28;19947;-63
2022/08/11 15:17:36;;;;;;;;;;;30.00;28.30;;;;;;5025885;28;19936;-64
2022/08/11 15:25:34;;;;;;;;;;;30.20;27.80;;;;;;5017410;28;19935;-65
2022/08/11 15:39:08;;;;;;;;;;;30.10;27.60;;;;;;5025725;28;19925;-63
2022/08/11 15:47:08;;;;;;;;;;;30.00;27.80;;;;;;5032950;28;19925;-64
2022/08/11 15:49:37;;;;;;;;;;;30.00;27.70;;;;;;5031513;28;20009;-65
2022/08/11 15:52:10;;;;;;;;;;;29.90;28.50;;;;;;5031208;28;19935;-65
2022/08/11 15:54:40;;;;;;;;;;;29.90;27.70;;;;;;5031197;28;20271;-64
2022/08/11 15:57:07;;;;;;;;;;;29.90;27.80;;;;;;5035854;28;20386;-64
2022/08/11 16:05:11;;;;;;;;;;;29.80;27.50;;;;;;5030075;28;20421;-64
2022/08/11 16:07:38;;;;;;;;;;;29.80;27.90;;;;;;5032345;28;19925;-65
2022/08/11 16:10:08;;;;;;;;;;;29.70;29.20;;;;;;5032290;28;19929;-65
2022/08/11 16:12:37;;;;;;;;;;;29.70;29.00;;;;;;5025381;28;19932;-64
2022/08/11 16:17:54;;;;;;;;;;;29.70;28.30;;;;;;5024502;28;20362;-64
2022/08/11 16:20:23;;;;;;;;;;;29.70;28.00;;;;;;5026043;28;19932;-65
2022/08/11 16:22:52;;;;;;;;;;;29.60;28.30;;;;;;5025009;28;20366;-63
2022/08/11 16:25:20;;;;;;;;;;;29.60;28.10;;;;;;5028871;28;19934;-65
2022/08/11 16:27:49;;;;;;;;;;;29.60;29.90;;;;;;5025841;28;19929;-64
2022/08/11 16:30:16;;;;;;;;;;;29.60;28.20;;;;;;5022768;28;19956;-64
2022/08/11 16:32:43;;;;;;;;;;;29.60;28.40;;;;;;5021900;28;19929;-64
2022/08/11 16:40:44;;;;;;;;;;;29.50;28.70;;;;;;5017960;28;20413;-69
2022/08/11 16:48:46;;;;;;;;;;;29.50;29.10;;;;;;5008237;28;19933;-64
2022/08/11 16:51:14;;;;;;;;;;;29.50;28.80;;;;;;5016363;28;19952;-63
2022/08/11 16:53:43;;;;;;;;;;;29.40;28.90;;;;;;5025430;28;19936;-67
2022/08/11 16:56:13;;;;;;;;;;;29.40;29.00;;;;;;5027980;28;19925;-65
2022/08/11 17:01:28;;;;;;;;;;;29.30;29.40;;;;;;5014563;28;19933;-64
2022/08/11 17:16:05;;;;;;;;;;;29.30;29.10;;;;;;5018725;28;19940;-64
2022/08/11 17:17:57;;;;;;;;;;;29.20;29.10;;;;;;5017264;28;19933;-65
2022/08/11 17:20:25;;;;;;;;;;;29.20;29.20;;;;;;5021174;28;19952;-67
2022/08/11 17:25:39;;;;;;;;;;;29.10;29.70;;;;;;5013558;28;19925;-66
2022/08/11 17:28:06;;;;;;;;;;;29.10;29.30;;;;;;5017195;28;19925;-66
2022/08/11 17:36:00;;;;;;;;;;;29.00;29.70;;;;;;5029121;28;20011;-64
2022/08/11 17:38:29;;;;;;;;;;;28.90;29.90;;;;;;5024885;28;19932;-65
2022/08/11 17:49:12;;;;;;;;;;;28.70;30.00;;;;;;5023216;28;19932;-65
2022/08/11 17:59:57;;;;;;;;;;;28.50;30.70;;;;;;4999604;28;20015;-65
2022/08/11 18:05:11;;;;;;;;;;;28.40;31.20;;;;;;5022432;28;19976;-65
